Heath, Ohio
Current Conditions -  °F | °C
As of 8:54 PM on Wednesday 22 Oct 2014 (Local Time) from KVTA Reporting Station
Overcast Overcast  
Wind Chill: 46°   Ceiling: 3300
Heat Index: 49°   Visibility: 10mi
Dew Point: 40°   Wind: 7mph
Humidity: 71%   Direction: 330°NNW
Pressure: 30.25"   Gusts: NA
Location:  40.04°N, 82.43°W
Report Text: KVTA 230054Z AUTO 33006KT 10SM OVC033 09/04 A3025 RMK AO2 SLP245 T00940044
Loading
Personal Weather Stations






























Interactive Weather Map
Tropical Storm Tracking
New forecast layout! Learn more

10-Day Weather Forecast

Advertisements
Track Severe Weather on mobile